Terminal Aerodrome Forecast
Issued by NWS Wilmington, OH

Current Version | Previous Version | Graphics & Text | Print | Product List | Glossary On
Versions: 1 2 3 4 5 6 7 8 9 10 11 12 13 14 15 16 17 18 19
377
FTUS41 KILN 161746
TAFILN
TAF
KILN 161746Z 1618/1718 23015G25KT P6SM FEW250
     FM162100 21010KT P6SM SCT250
     FM170900 19007KT P6SM BKN250
     FM171600 19008KT P6SM OVC100=

USA.gov is the U.S. government's official web portal to all federal, state and local government web resources and services.